sensor_id;sensor_type;location;lat;lon;timestamp;temperature;humidity
16437;DHT22;8328;52.206;21.006;2023-02-13T00:00:27;5.00;99.90
16437;DHT22;8328;52.206;21.006;2023-02-13T00:02:53;5.00;99.90
16437;DHT22;8328;52.206;21.006;2023-02-13T00:05:19;5.00;99.90
16437;DHT22;8328;52.206;21.006;2023-02-13T00:07:45;5.10;99.90
16437;DHT22;8328;52.206;21.006;2023-02-13T00:10:11;5.10;99.90
16437;DHT22;8328;52.206;21.006;2023-02-13T00:12:36;5.10;99.90
16437;DHT22;8328;52.206;21.006;2023-02-13T00:15:03;5.10;99.90
16437;DHT22;8328;52.206;21.006;2023-02-13T00:17:29;5.10;99.90
16437;DHT22;8328;52.206;21.006;2023-02-13T00:19:55;5.20;99.90
16437;DHT22;8328;52.206;21.006;2023-02-13T00:22:21;4.50;99.90
16437;DHT22;8328;52.206;21.006;2023-02-13T00:24:47;5.20;99.90
16437;DHT22;8328;52.206;21.006;2023-02-13T00:27:13;4.50;99.90
16437;DHT22;8328;52.206;21.006;2023-02-13T00:29:39;5.20;99.90
16437;DHT22;8328;52.206;21.006;2023-02-13T00:32:05;6.50;99.90
16437;DHT22;8328;52.206;21.006;2023-02-13T00:34:40;5.10;99.90
16437;DHT22;8328;52.206;21.006;2023-02-13T00:37:09;5.10;99.90
16437;DHT22;8328;52.206;21.006;2023-02-13T00:39:35;5.10;99.90
16437;DHT22;8328;52.206;21.006;2023-02-13T00:42:01;5.10;99.90
16437;DHT22;8328;52.206;21.006;2023-02-13T00:44:27;5.10;99.90
16437;DHT22;8328;52.206;21.006;2023-02-13T00:46:56;5.20;99.90
16437;DHT22;8328;52.206;21.006;2023-02-13T00:49:24;5.20;99.90
16437;DHT22;8328;52.206;21.006;2023-02-13T00:51:50;5.20;99.90
16437;DHT22;8328;52.206;21.006;2023-02-13T00:54:16;5.30;99.90
16437;DHT22;8328;52.206;21.006;2023-02-13T00:56:42;5.30;99.90
16437;DHT22;8328;52.206;21.006;2023-02-13T00:59:07;5.30;99.90
16437;DHT22;8328;52.206;21.006;2023-02-13T01:01:33;5.30;99.90
16437;DHT22;8328;52.206;21.006;2023-02-13T01:03:59;5.30;99.90
16437;DHT22;8328;52.206;21.006;2023-02-13T01:06:25;5.30;99.90
16437;DHT22;8328;52.206;21.006;2023-02-13T01:08:50;5.40;99.90
16437;DHT22;8328;52.206;21.006;2023-02-13T01:11:16;5.40;99.90
16437;DHT22;8328;52.206;21.006;2023-02-13T01:13:43;5.30;99.90
16437;DHT22;8328;52.206;21.006;2023-02-13T01:16:09;5.40;99.90
16437;DHT22;8328;52.206;21.006;2023-02-13T01:18:36;5.00;99.90
16437;DHT22;8328;52.206;21.006;2023-02-13T01:21:05;5.40;99.90
16437;DHT22;8328;52.206;21.006;2023-02-13T01:23:34;5.30;99.90
16437;DHT22;8328;52.206;21.006;2023-02-13T01:26:03;5.40;99.90
16437;DHT22;8328;52.206;21.006;2023-02-13T01:28:29;5.40;99.90
16437;DHT22;8328;52.206;21.006;2023-02-13T01:30:55;5.40;99.90
16437;DHT22;8328;52.206;21.006;2023-02-13T01:33:23;5.30;99.90
16437;DHT22;8328;52.206;21.006;2023-02-13T01:35:49;5.30;99.90
16437;DHT22;8328;52.206;21.006;2023-02-13T01:38:15;5.40;99.90
16437;DHT22;8328;52.206;21.006;2023-02-13T01:43:11;5.50;99.90
16437;DHT22;8328;52.206;21.006;2023-02-13T01:45:37;5.40;99.90
16437;DHT22;8328;52.206;21.006;2023-02-13T01:48:15;5.40;99.90
16437;DHT22;8328;52.206;21.006;2023-02-13T01:51:00;5.40;99.90
16437;DHT22;8328;52.206;21.006;2023-02-13T01:56:22;5.40;99.90
16437;DHT22;8328;52.206;21.006;2023-02-13T01:58:51;5.40;99.90
16437;DHT22;8328;52.206;21.006;2023-02-13T02:01:19;5.50;99.90
16437;DHT22;8328;52.206;21.006;2023-02-13T02:03:56;5.50;99.90
16437;DHT22;8328;52.206;21.006;2023-02-13T02:06:54;5.40;99.90
16437;DHT22;8328;52.206;21.006;2023-02-13T02:09:25;5.50;99.90
16437;DHT22;8328;52.206;21.006;2023-02-13T02:14:29;5.60;99.90
16437;DHT22;8328;52.206;21.006;2023-02-13T02:16:56;5.60;99.90
16437;DHT22;8328;52.206;21.006;2023-02-13T02:19:37;5.60;99.90
16437;DHT22;8328;52.206;21.006;2023-02-13T02:47:32;5.60;99.90
16437;DHT22;8328;52.206;21.006;2023-02-13T02:50:51;5.60;99.90
16437;DHT22;8328;52.206;21.006;2023-02-13T02:53:32;5.50;99.90
16437;DHT22;8328;52.206;21.006;2023-02-13T02:56:07;5.60;99.90
16437;DHT22;8328;52.206;21.006;2023-02-13T02:59:13;5.60;99.90
16437;DHT22;8328;52.206;21.006;2023-02-13T03:01:59;5.60;99.90
16437;DHT22;8328;52.206;21.006;2023-02-13T03:05:16;5.60;99.90
16437;DHT22;8328;52.206;21.006;2023-02-13T03:08:02;5.60;99.90
16437;DHT22;8328;52.206;21.006;2023-02-13T03:10:31;5.60;99.90
16437;DHT22;8328;52.206;21.006;2023-02-13T03:13:38;5.60;99.90
16437;DHT22;8328;52.206;21.006;2023-02-13T03:16:05;5.60;99.90
16437;DHT22;8328;52.206;21.006;2023-02-13T03:18:54;5.60;99.90
16437;DHT22;8328;52.206;21.006;2023-02-13T03:22:05;5.50;99.90
16437;DHT22;8328;52.206;21.006;2023-02-13T03:27:40;5.50;99.90
16437;DHT22;8328;52.206;21.006;2023-02-13T03:30:52;5.50;99.90
16437;DHT22;8328;52.206;21.006;2023-02-13T03:41:55;5.40;99.90
16437;DHT22;8328;52.206;21.006;2023-02-13T03:44:43;5.40;99.90
16437;DHT22;8328;52.206;21.006;2023-02-13T03:47:13;5.40;99.90
16437;DHT22;8328;52.206;21.006;2023-02-13T03:49:48;5.40;99.90
16437;DHT22;8328;52.206;21.006;2023-02-13T03:52:57;5.40;99.90
16437;DHT22;8328;52.206;21.006;2023-02-13T03:55:32;5.30;99.90
16437;DHT22;8328;52.206;21.006;2023-02-13T03:58:23;5.30;99.90
16437;DHT22;8328;52.206;21.006;2023-02-13T04:01:09;5.40;99.90
16437;DHT22;8328;52.206;21.006;2023-02-13T04:03:53;5.50;99.90
16437;DHT22;8328;52.206;21.006;2023-02-13T04:06:29;5.40;99.90
16437;DHT22;8328;52.206;21.006;2023-02-13T04:08:56;5.40;99.90
16437;DHT22;8328;52.206;21.006;2023-02-13T04:11:29;5.40;99.90
16437;DHT22;8328;52.206;21.006;2023-02-13T04:14:05;5.40;99.90
16437;DHT22;8328;52.206;21.006;2023-02-13T04:17:16;5.50;99.90
16437;DHT22;8328;52.206;21.006;2023-02-13T04:19:39;5.50;99.90
16437;DHT22;8328;52.206;21.006;2023-02-13T04:22:05;5.40;99.90
16437;DHT22;8328;52.206;21.006;2023-02-13T04:24:31;5.50;99.90
16437;DHT22;8328;52.206;21.006;2023-02-13T04:26:57;5.50;99.90
16437;DHT22;8328;52.206;21.006;2023-02-13T04:29:24;5.40;99.90
16437;DHT22;8328;52.206;21.006;2023-02-13T04:31:50;5.40;99.90
16437;DHT22;8328;52.206;21.006;2023-02-13T04:34:16;5.40;99.90
16437;DHT22;8328;52.206;21.006;2023-02-13T04:36:42;5.40;99.90
16437;DHT22;8328;52.206;21.006;2023-02-13T04:39:08;5.40;99.90
16437;DHT22;8328;52.206;21.006;2023-02-13T04:41:35;5.40;99.90
16437;DHT22;8328;52.206;21.006;2023-02-13T04:44:00;5.50;99.90
16437;DHT22;8328;52.206;21.006;2023-02-13T04:46:26;5.50;99.90
16437;DHT22;8328;52.206;21.006;2023-02-13T04:48:52;5.50;99.90
16437;DHT22;8328;52.206;21.006;2023-02-13T04:51:18;5.50;99.90
16437;DHT22;8328;52.206;21.006;2023-02-13T04:53:43;5.50;99.90
16437;DHT22;8328;52.206;21.006;2023-02-13T04:56:09;5.50;99.90
16437;DHT22;8328;52.206;21.006;2023-02-13T04:58:35;5.40;99.90
16437;DHT22;8328;52.206;21.006;2023-02-13T05:01:00;5.50;99.90
16437;DHT22;8328;52.206;21.006;2023-02-13T05:03:26;5.60;99.90
16437;DHT22;8328;52.206;21.006;2023-02-13T05:05:52;5.60;99.90
16437;DHT22;8328;52.206;21.006;2023-02-13T05:08:18;5.50;99.90
16437;DHT22;8328;52.206;21.006;2023-02-13T05:10:44;5.50;99.90
16437;DHT22;8328;52.206;21.006;2023-02-13T05:13:10;5.50;99.90
16437;DHT22;8328;52.206;21.006;2023-02-13T05:15:36;5.40;99.90
16437;DHT22;8328;52.206;21.006;2023-02-13T05:18:02;5.40;99.90
16437;DHT22;8328;52.206;21.006;2023-02-13T05:20:28;5.40;99.90
16437;DHT22;8328;52.206;21.006;2023-02-13T05:22:53;5.40;99.90
16437;DHT22;8328;52.206;21.006;2023-02-13T05:25:40;5.40;99.90
16437;DHT22;8328;52.206;21.006;2023-02-13T05:28:06;5.50;99.90
16437;DHT22;8328;52.206;21.006;2023-02-13T05:30:55;5.50;99.90
16437;DHT22;8328;52.206;21.006;2023-02-13T05:33:21;5.50;99.90
16437;DHT22;8328;52.206;21.006;2023-02-13T05:35:46;5.50;99.90
16437;DHT22;8328;52.206;21.006;2023-02-13T05:38:12;5.50;99.90
16437;DHT22;8328;52.206;21.006;2023-02-13T05:40:38;5.50;99.90
16437;DHT22;8328;52.206;21.006;2023-02-13T05:43:03;5.50;99.90
16437;DHT22;8328;52.206;21.006;2023-02-13T05:45:29;5.50;99.90
16437;DHT22;8328;52.206;21.006;2023-02-13T05:47:55;5.60;99.90
16437;DHT22;8328;52.206;21.006;2023-02-13T05:50:21;5.50;99.90
16437;DHT22;8328;52.206;21.006;2023-02-13T05:52:47;5.50;99.90
16437;DHT22;8328;52.206;21.006;2023-02-13T05:55:13;5.40;99.90
16437;DHT22;8328;52.206;21.006;2023-02-13T05:57:38;5.50;99.90
16437;DHT22;8328;52.206;21.006;2023-02-13T06:00:05;5.60;99.90
16437;DHT22;8328;52.206;21.006;2023-02-13T06:02:31;5.50;99.90
16437;DHT22;8328;52.206;21.006;2023-02-13T06:04:57;5.50;99.90
16437;DHT22;8328;52.206;21.006;2023-02-13T06:07:23;5.50;99.90
16437;DHT22;8328;52.206;21.006;2023-02-13T06:09:48;5.50;99.90
16437;DHT22;8328;52.206;21.006;2023-02-13T06:12:14;5.50;99.90
16437;DHT22;8328;52.206;21.006;2023-02-13T06:14:40;5.60;99.90
16437;DHT22;8328;52.206;21.006;2023-02-13T06:17:05;5.60;99.90
16437;DHT22;8328;52.206;21.006;2023-02-13T06:19:31;5.70;99.90
16437;DHT22;8328;52.206;21.006;2023-02-13T06:21:57;5.60;99.90
16437;DHT22;8328;52.206;21.006;2023-02-13T06:24:23;5.60;99.90
16437;DHT22;8328;52.206;21.006;2023-02-13T06:26:48;5.70;99.90
16437;DHT22;8328;52.206;21.006;2023-02-13T06:29:14;5.70;99.90
16437;DHT22;8328;52.206;21.006;2023-02-13T06:31:40;5.70;99.90
16437;DHT22;8328;52.206;21.006;2023-02-13T06:34:05;5.70;99.90
16437;DHT22;8328;52.206;21.006;2023-02-13T06:36:31;5.70;99.90
16437;DHT22;8328;52.206;21.006;2023-02-13T06:38:57;5.70;99.90
16437;DHT22;8328;52.206;21.006;2023-02-13T06:41:23;5.70;99.90
16437;DHT22;8328;52.206;21.006;2023-02-13T06:43:49;5.70;99.90
16437;DHT22;8328;52.206;21.006;2023-02-13T06:46:15;5.70;99.90
16437;DHT22;8328;52.206;21.006;2023-02-13T06:48:40;5.70;99.90
16437;DHT22;8328;52.206;21.006;2023-02-13T06:51:06;5.60;99.90
16437;DHT22;8328;52.206;21.006;2023-02-13T06:53:32;5.70;99.90
16437;DHT22;8328;52.206;21.006;2023-02-13T06:55:58;6.30;99.90
16437;DHT22;8328;52.206;21.006;2023-02-13T06:58:24;7.10;99.90
16437;DHT22;8328;52.206;21.006;2023-02-13T07:00:52;6.70;99.90
16437;DHT22;8328;52.206;21.006;2023-02-13T07:03:18;6.10;99.90
16437;DHT22;8328;52.206;21.006;2023-02-13T07:05:44;6.80;99.90
16437;DHT22;8328;52.206;21.006;2023-02-13T07:08:11;6.80;99.90
16437;DHT22;8328;52.206;21.006;2023-02-13T07:10:38;7.00;99.90
16437;DHT22;8328;52.206;21.006;2023-02-13T07:13:04;6.80;99.90
16437;DHT22;8328;52.206;21.006;2023-02-13T07:15:31;6.60;99.90
16437;DHT22;8328;52.206;21.006;2023-02-13T07:17:58;6.50;99.90
16437;DHT22;8328;52.206;21.006;2023-02-13T07:20:25;6.40;99.90
16437;DHT22;8328;52.206;21.006;2023-02-13T07:22:51;6.30;99.90
16437;DHT22;8328;52.206;21.006;2023-02-13T07:25:17;6.30;99.90
16437;DHT22;8328;52.206;21.006;2023-02-13T07:27:43;6.30;99.90
16437;DHT22;8328;52.206;21.006;2023-02-13T07:30:09;6.30;99.90
16437;DHT22;8328;52.206;21.006;2023-02-13T07:32:35;6.50;99.90
16437;DHT22;8328;52.206;21.006;2023-02-13T07:35:01;6.70;99.90
16437;DHT22;8328;52.206;21.006;2023-02-13T07:37:28;6.70;99.90
16437;DHT22;8328;52.206;21.006;2023-02-13T07:39:54;6.90;99.90
16437;DHT22;8328;52.206;21.006;2023-02-13T07:42:20;6.90;99.90
16437;DHT22;8328;52.206;21.006;2023-02-13T07:44:45;7.00;99.90
16437;DHT22;8328;52.206;21.006;2023-02-13T07:47:11;7.10;99.90
16437;DHT22;8328;52.206;21.006;2023-02-13T07:49:37;7.10;99.90
16437;DHT22;8328;52.206;21.006;2023-02-13T07:52:04;7.10;99.90
16437;DHT22;8328;52.206;21.006;2023-02-13T07:54:30;7.20;99.90
16437;DHT22;8328;52.206;21.006;2023-02-13T07:56:56;7.30;99.90
16437;DHT22;8328;52.206;21.006;2023-02-13T07:59:22;7.40;99.90
16437;DHT22;8328;52.206;21.006;2023-02-13T08:01:48;7.30;99.90
16437;DHT22;8328;52.206;21.006;2023-02-13T08:04:14;7.40;99.90
16437;DHT22;8328;52.206;21.006;2023-02-13T08:06:40;7.30;99.90
16437;DHT22;8328;52.206;21.006;2023-02-13T08:09:07;7.20;99.90
16437;DHT22;8328;52.206;21.006;2023-02-13T08:11:55;7.00;99.90
16437;DHT22;8328;52.206;21.006;2023-02-13T08:14:22;7.00;99.90
16437;DHT22;8328;52.206;21.006;2023-02-13T08:16:49;7.10;99.90
16437;DHT22;8328;52.206;21.006;2023-02-13T08:19:18;7.20;99.90
16437;DHT22;8328;52.206;21.006;2023-02-13T08:21:43;7.30;99.90
16437;DHT22;8328;52.206;21.006;2023-02-13T08:24:11;7.30;99.90
16437;DHT22;8328;52.206;21.006;2023-02-13T08:26:37;7.30;99.90
16437;DHT22;8328;52.206;21.006;2023-02-13T08:29:04;7.30;99.90
16437;DHT22;8328;52.206;21.006;2023-02-13T08:31:31;7.30;99.90
16437;DHT22;8328;52.206;21.006;2023-02-13T08:33:57;7.40;99.90
16437;DHT22;8328;52.206;21.006;2023-02-13T08:36:23;7.60;99.90
16437;DHT22;8328;52.206;21.006;2023-02-13T08:38:49;7.70;99.90
16437;DHT22;8328;52.206;21.006;2023-02-13T08:41:15;7.80;99.90
16437;DHT22;8328;52.206;21.006;2023-02-13T08:43:47;7.90;99.90
16437;DHT22;8328;52.206;21.006;2023-02-13T08:46:13;8.00;99.90
16437;DHT22;8328;52.206;21.006;2023-02-13T08:48:38;8.20;99.90
16437;DHT22;8328;52.206;21.006;2023-02-13T08:51:06;8.10;99.90
16437;DHT22;8328;52.206;21.006;2023-02-13T08:53:33;8.10;99.90
16437;DHT22;8328;52.206;21.006;2023-02-13T08:55:59;8.30;99.90
16437;DHT22;8328;52.206;21.006;2023-02-13T08:58:24;8.40;99.90
16437;DHT22;8328;52.206;21.006;2023-02-13T09:00:50;8.40;99.90
16437;DHT22;8328;52.206;21.006;2023-02-13T09:03:16;8.60;99.90
16437;DHT22;8328;52.206;21.006;2023-02-13T09:05:42;8.60;99.90
16437;DHT22;8328;52.206;21.006;2023-02-13T09:08:08;8.70;99.90
16437;DHT22;8328;52.206;21.006;2023-02-13T09:10:36;8.50;99.90
16437;DHT22;8328;52.206;21.006;2023-02-13T09:13:03;8.20;99.90
16437;DHT22;8328;52.206;21.006;2023-02-13T09:15:29;7.90;99.90
16437;DHT22;8328;52.206;21.006;2023-02-13T09:17:55;7.60;99.90
16437;DHT22;8328;52.206;21.006;2023-02-13T09:20:21;7.60;99.90
16437;DHT22;8328;52.206;21.006;2023-02-13T09:22:47;7.40;99.90
16437;DHT22;8328;52.206;21.006;2023-02-13T09:25:12;7.50;99.90
16437;DHT22;8328;52.206;21.006;2023-02-13T09:27:38;6.90;99.90
16437;DHT22;8328;52.206;21.006;2023-02-13T09:30:06;7.50;99.90
16437;DHT22;8328;52.206;21.006;2023-02-13T09:32:31;7.60;99.90
16437;DHT22;8328;52.206;21.006;2023-02-13T09:34:58;7.70;99.90
16437;DHT22;8328;52.206;21.006;2023-02-13T09:37:25;7.60;99.90
16437;DHT22;8328;52.206;21.006;2023-02-13T09:39:51;7.40;99.90
16437;DHT22;8328;52.206;21.006;2023-02-13T09:42:21;7.30;99.90
16437;DHT22;8328;52.206;21.006;2023-02-13T09:44:52;7.30;99.90
16437;DHT22;8328;52.206;21.006;2023-02-13T09:47:31;7.40;99.90
16437;DHT22;8328;52.206;21.006;2023-02-13T09:50:09;7.70;99.90
16437;DHT22;8328;52.206;21.006;2023-02-13T09:52:37;7.80;99.90
16437;DHT22;8328;52.206;21.006;2023-02-13T09:55:24;8.20;99.90
16437;DHT22;8328;52.206;21.006;2023-02-13T10:00:47;8.40;99.90
16437;DHT22;8328;52.206;21.006;2023-02-13T10:05:55;8.60;99.90
16437;DHT22;8328;52.206;21.006;2023-02-13T10:16:33;8.70;99.90
16437;DHT22;8328;52.206;21.006;2023-02-13T10:19:01;10.30;99.90
16437;DHT22;8328;52.206;21.006;2023-02-13T10:21:34;8.70;99.90
16437;DHT22;8328;52.206;21.006;2023-02-13T10:24:11;8.80;99.90
16437;DHT22;8328;52.206;21.006;2023-02-13T10:26:40;8.80;99.90
16437;DHT22;8328;52.206;21.006;2023-02-13T10:32:16;8.50;99.90
16437;DHT22;8328;52.206;21.006;2023-02-13T10:34:44;8.40;99.90
16437;DHT22;8328;52.206;21.006;2023-02-13T10:37:17;8.40;99.90
16437;DHT22;8328;52.206;21.006;2023-02-13T10:39:49;8.10;99.90
16437;DHT22;8328;52.206;21.006;2023-02-13T10:42:29;8.00;99.90
16437;DHT22;8328;52.206;21.006;2023-02-13T10:45:25;7.90;99.90
16437;DHT22;8328;52.206;21.006;2023-02-13T10:50:38;8.70;99.90
16437;DHT22;8328;52.206;21.006;2023-02-13T11:04:46;8.60;99.90
16437;DHT22;8328;52.206;21.006;2023-02-13T11:07:14;8.60;99.90
16437;DHT22;8328;52.206;21.006;2023-02-13T11:09:44;8.60;99.90
16437;DHT22;8328;52.206;21.006;2023-02-13T11:12:36;8.60;99.90
16437;DHT22;8328;52.206;21.006;2023-02-13T11:15:05;8.70;99.90
16437;DHT22;8328;52.206;21.006;2023-02-13T11:17:34;8.80;99.90
16437;DHT22;8328;52.206;21.006;2023-02-13T11:20:41;8.70;99.90
16437;DHT22;8328;52.206;21.006;2023-02-13T11:28:21;8.40;99.90
16437;DHT22;8328;52.206;21.006;2023-02-13T11:30:47;8.40;99.90
16437;DHT22;8328;52.206;21.006;2023-02-13T11:35:43;8.60;99.90
16437;DHT22;8328;52.206;21.006;2023-02-13T11:40:35;8.80;99.90
16437;DHT22;8328;52.206;21.006;2023-02-13T11:43:04;8.80;99.90
16437;DHT22;8328;52.206;21.006;2023-02-13T11:45:31;8.90;99.90
16437;DHT22;8328;52.206;21.006;2023-02-13T11:47:57;8.70;99.90
16437;DHT22;8328;52.206;21.006;2023-02-13T11:50:33;8.50;99.90
16437;DHT22;8328;52.206;21.006;2023-02-13T11:53:05;8.40;99.90
16437;DHT22;8328;52.206;21.006;2023-02-13T11:55:37;8.20;99.90
16437;DHT22;8328;52.206;21.006;2023-02-13T12:00:39;8.10;99.90
16437;DHT22;8328;52.206;21.006;2023-02-13T12:06:03;8.00;99.90
16437;DHT22;8328;52.206;21.006;2023-02-13T12:08:31;8.10;99.90
16437;DHT22;8328;52.206;21.006;2023-02-13T12:10:58;8.20;99.90
16437;DHT22;8328;52.206;21.006;2023-02-13T12:13:30;8.10;99.90
16437;DHT22;8328;52.206;21.006;2023-02-13T12:16:09;7.90;99.90
16437;DHT22;8328;52.206;21.006;2023-02-13T12:18:43;8.10;99.90
16437;DHT22;8328;52.206;21.006;2023-02-13T12:26:43;9.20;99.90
16437;DHT22;8328;52.206;21.006;2023-02-13T12:43:07;8.40;99.90
16437;DHT22;8328;52.206;21.006;2023-02-13T12:45:42;8.10;99.90
16437;DHT22;8328;52.206;21.006;2023-02-13T12:59:30;7.80;99.90
16437;DHT22;8328;52.206;21.006;2023-02-13T13:04:47;7.70;99.90
16437;DHT22;8328;52.206;21.006;2023-02-13T13:07:30;7.70;99.90
16437;DHT22;8328;52.206;21.006;2023-02-13T13:13:16;7.80;99.90
16437;DHT22;8328;52.206;21.006;2023-02-13T13:15:51;7.80;99.90
16437;DHT22;8328;52.206;21.006;2023-02-13T13:18:41;7.80;99.90
16437;DHT22;8328;52.206;21.006;2023-02-13T13:24:07;8.10;99.90
16437;DHT22;8328;52.206;21.006;2023-02-13T13:26:42;7.90;99.90
16437;DHT22;8328;52.206;21.006;2023-02-13T13:29:35;8.20;99.90
16437;DHT22;8328;52.206;21.006;2023-02-13T13:32:07;8.70;99.90
16437;DHT22;8328;52.206;21.006;2023-02-13T13:34:38;8.80;99.90
16437;DHT22;8328;52.206;21.006;2023-02-13T13:42:23;8.40;99.90
16437;DHT22;8328;52.206;21.006;2023-02-13T13:50:31;7.90;99.90
16437;DHT22;8328;52.206;21.006;2023-02-13T13:58:30;7.90;99.90
16437;DHT22;8328;52.206;21.006;2023-02-13T14:03:43;8.10;99.90
16437;DHT22;8328;52.206;21.006;2023-02-13T14:06:18;8.00;99.90
16437;DHT22;8328;52.206;21.006;2023-02-13T14:11:41;7.90;99.90
16437;DHT22;8328;52.206;21.006;2023-02-13T14:16:54;7.60;99.90
16437;DHT22;8328;52.206;21.006;2023-02-13T14:19:35;7.50;99.90
16437;DHT22;8328;52.206;21.006;2023-02-13T14:24:57;7.30;99.90
16437;DHT22;8328;52.206;21.006;2023-02-13T14:27:33;7.20;99.90
16437;DHT22;8328;52.206;21.006;2023-02-13T14:30:04;7.20;99.90
16437;DHT22;8328;52.206;21.006;2023-02-13T14:32:36;7.00;99.90
16437;DHT22;8328;52.206;21.006;2023-02-13T14:35:17;7.20;99.90
16437;DHT22;8328;52.206;21.006;2023-02-13T14:37:53;7.20;99.90
16437;DHT22;8328;52.206;21.006;2023-02-13T14:42:55;7.20;99.90
16437;DHT22;8328;52.206;21.006;2023-02-13T14:45:28;7.30;99.90
16437;DHT22;8328;52.206;21.006;2023-02-13T14:47:56;7.40;99.90
16437;DHT22;8328;52.206;21.006;2023-02-13T14:50:24;7.30;99.90
16437;DHT22;8328;52.206;21.006;2023-02-13T14:52:51;7.30;99.90
16437;DHT22;8328;52.206;21.006;2023-02-13T14:55:40;7.30;99.90
16437;DHT22;8328;52.206;21.006;2023-02-13T14:58:14;7.40;99.90
16437;DHT22;8328;52.206;21.006;2023-02-13T15:00:45;7.40;99.90
16437;DHT22;8328;52.206;21.006;2023-02-13T15:03:50;7.30;99.90
16437;DHT22;8328;52.206;21.006;2023-02-13T15:06:29;7.30;99.90
16437;DHT22;8328;52.206;21.006;2023-02-13T15:09:00;7.20;99.90
16437;DHT22;8328;52.206;21.006;2023-02-13T15:11:40;7.30;99.90
16437;DHT22;8328;52.206;21.006;2023-02-13T15:14:23;7.20;99.90
16437;DHT22;8328;52.206;21.006;2023-02-13T15:17:23;7.30;99.90
16437;DHT22;8328;52.206;21.006;2023-02-13T15:19:52;7.20;99.90
16437;DHT22;8328;52.206;21.006;2023-02-13T15:24:52;7.20;99.90
16437;DHT22;8328;52.206;21.006;2023-02-13T15:27:30;7.90;99.90
16437;DHT22;8328;52.206;21.006;2023-02-13T15:30:03;7.20;99.90
16437;DHT22;8328;52.206;21.006;2023-02-13T15:32:32;7.10;99.90
16437;DHT22;8328;52.206;21.006;2023-02-13T15:34:59;7.00;99.90
16437;DHT22;8328;52.206;21.006;2023-02-13T15:37:28;6.90;99.90
16437;DHT22;8328;52.206;21.006;2023-02-13T15:39:53;6.90;99.90
16437;DHT22;8328;52.206;21.006;2023-02-13T15:42:19;6.80;99.90
16437;DHT22;8328;52.206;21.006;2023-02-13T15:44:50;6.80;99.90
16437;DHT22;8328;52.206;21.006;2023-02-13T15:47:26;6.80;99.90
16437;DHT22;8328;52.206;21.006;2023-02-13T15:49:52;6.70;99.90
16437;DHT22;8328;52.206;21.006;2023-02-13T15:52:33;6.70;99.90
16437;DHT22;8328;52.206;21.006;2023-02-13T15:55:03;6.70;99.90
16437;DHT22;8328;52.206;21.006;2023-02-13T15:57:29;6.70;99.90
16437;DHT22;8328;52.206;21.006;2023-02-13T15:59:56;6.70;99.90
16437;DHT22;8328;52.206;21.006;2023-02-13T16:02:29;6.70;99.90
16437;DHT22;8328;52.206;21.006;2023-02-13T16:05:00;6.70;99.90
16437;DHT22;8328;52.206;21.006;2023-02-13T16:07:26;6.70;99.90
16437;DHT22;8328;52.206;21.006;2023-02-13T16:10:25;6.70;99.90
16437;DHT22;8328;52.206;21.006;2023-02-13T16:12:52;6.70;99.90
16437;DHT22;8328;52.206;21.006;2023-02-13T16:15:20;6.70;99.90
16437;DHT22;8328;52.206;21.006;2023-02-13T16:17:47;6.60;99.90
16437;DHT22;8328;52.206;21.006;2023-02-13T16:22:51;6.70;99.90
16437;DHT22;8328;52.206;21.006;2023-02-13T16:25:29;6.70;99.90
16437;DHT22;8328;52.206;21.006;2023-02-13T16:27:59;6.70;99.90
16437;DHT22;8328;52.206;21.006;2023-02-13T16:33:21;6.60;99.90
16437;DHT22;8328;52.206;21.006;2023-02-13T16:35:57;6.70;99.90
16437;DHT22;8328;52.206;21.006;2023-02-13T16:38:44;6.70;99.90
16437;DHT22;8328;52.206;21.006;2023-02-13T16:44:05;6.60;99.90
16437;DHT22;8328;52.206;21.006;2023-02-13T16:47:00;6.60;99.90
16437;DHT22;8328;52.206;21.006;2023-02-13T16:49:31;6.60;99.90
16437;DHT22;8328;52.206;21.006;2023-02-13T16:52:10;6.70;99.90
16437;DHT22;8328;52.206;21.006;2023-02-13T17:02:36;6.60;99.90
16437;DHT22;8328;52.206;21.006;2023-02-13T17:10:03;6.70;99.90
16437;DHT22;8328;52.206;21.006;2023-02-13T17:12:30;6.60;99.90
16437;DHT22;8328;52.206;21.006;2023-02-13T17:14:59;6.70;99.90
16437;DHT22;8328;52.206;21.006;2023-02-13T17:17:30;6.60;99.90
16437;DHT22;8328;52.206;21.006;2023-02-13T17:19:57;6.60;99.90
16437;DHT22;8328;52.206;21.006;2023-02-13T17:24:52;6.60;99.90
16437;DHT22;8328;52.206;21.006;2023-02-13T17:27:18;6.70;99.90
16437;DHT22;8328;52.206;21.006;2023-02-13T17:29:43;6.60;99.90
16437;DHT22;8328;52.206;21.006;2023-02-13T17:32:15;6.70;99.90
16437;DHT22;8328;52.206;21.006;2023-02-13T17:34:41;6.70;99.90
16437;DHT22;8328;52.206;21.006;2023-02-13T17:37:26;6.70;99.90
16437;DHT22;8328;52.206;21.006;2023-02-13T17:39:53;6.60;99.90
16437;DHT22;8328;52.206;21.006;2023-02-13T17:42:28;6.70;99.90
16437;DHT22;8328;52.206;21.006;2023-02-13T17:44:56;6.70;99.90
16437;DHT22;8328;52.206;21.006;2023-02-13T17:47:23;6.60;99.90
16437;DHT22;8328;52.206;21.006;2023-02-13T17:49:49;6.60;99.90
16437;DHT22;8328;52.206;21.006;2023-02-13T17:52:20;6.70;99.90
16437;DHT22;8328;52.206;21.006;2023-02-13T17:54:47;6.60;99.90
16437;DHT22;8328;52.206;21.006;2023-02-13T17:57:15;6.60;99.90
16437;DHT22;8328;52.206;21.006;2023-02-13T17:59:41;6.60;99.90
16437;DHT22;8328;52.206;21.006;2023-02-13T18:02:21;6.60;99.90
16437;DHT22;8328;52.206;21.006;2023-02-13T18:04:48;6.60;99.90
16437;DHT22;8328;52.206;21.006;2023-02-13T18:07:16;6.60;99.90
16437;DHT22;8328;52.206;21.006;2023-02-13T18:09:42;7.60;99.90
16437;DHT22;8328;52.206;21.006;2023-02-13T18:12:16;6.60;99.90
16437;DHT22;8328;52.206;21.006;2023-02-13T18:14:42;6.60;99.90
16437;DHT22;8328;52.206;21.006;2023-02-13T18:17:08;6.60;99.90
16437;DHT22;8328;52.206;21.006;2023-02-13T18:19:33;6.60;99.90
16437;DHT22;8328;52.206;21.006;2023-02-13T18:21:59;6.60;99.90
16437;DHT22;8328;52.206;21.006;2023-02-13T18:24:29;6.60;99.90
16437;DHT22;8328;52.206;21.006;2023-02-13T18:26:55;6.50;99.90
16437;DHT22;8328;52.206;21.006;2023-02-13T18:29:21;6.60;99.90
16437;DHT22;8328;52.206;21.006;2023-02-13T18:31:47;6.70;99.90
16437;DHT22;8328;52.206;21.006;2023-02-13T18:34:15;6.60;99.90
16437;DHT22;8328;52.206;21.006;2023-02-13T18:36:41;6.60;99.90
16437;DHT22;8328;52.206;21.006;2023-02-13T18:39:07;6.60;99.90
16437;DHT22;8328;52.206;21.006;2023-02-13T18:41:32;6.60;99.90
16437;DHT22;8328;52.206;21.006;2023-02-13T18:43:58;6.50;99.90
16437;DHT22;8328;52.206;21.006;2023-02-13T18:46:24;6.60;99.90
16437;DHT22;8328;52.206;21.006;2023-02-13T18:48:49;6.60;99.90
16437;DHT22;8328;52.206;21.006;2023-02-13T18:51:15;6.60;99.90
16437;DHT22;8328;52.206;21.006;2023-02-13T18:53:41;6.60;99.90
16437;DHT22;8328;52.206;21.006;2023-02-13T18:56:07;6.60;99.90
16437;DHT22;8328;52.206;21.006;2023-02-13T18:58:34;6.60;99.90
16437;DHT22;8328;52.206;21.006;2023-02-13T19:01:07;6.60;99.90
16437;DHT22;8328;52.206;21.006;2023-02-13T19:03:34;6.50;99.90
16437;DHT22;8328;52.206;21.006;2023-02-13T19:06:05;6.50;99.90
16437;DHT22;8328;52.206;21.006;2023-02-13T19:08:31;6.50;99.90
16437;DHT22;8328;52.206;21.006;2023-02-13T19:11:01;6.50;99.90
16437;DHT22;8328;52.206;21.006;2023-02-13T19:13:27;6.40;99.90